Time;durP1;ratioP1;P1;durP2;ratioP2;P2;SDS_P1;SDS_P2;PMS_P1;PMS_P2;Temp;Humidity;BMP_temperature;BMP_pressure;BME280_temperature;BME280_humidity;BME280_pressure;Samples;Min_cycle;Max_cycle;Signal;HPM_P1;HPM_P2
2021/04/24 00:02:05;;;;;;;12.68;5.53;;;;;;;5.33;76.51;103174.50;5039135;28;20057;-71
2021/04/24 00:04:33;;;;;;;14.15;6.00;;;;;;;5.28;76.68;103169.91;5035251;28;20543;-71
2021/04/24 00:07:00;;;;;;;16.48;6.05;;;;;;;5.26;77.43;103174.25;5040525;28;20098;-71
2021/04/24 00:09:27;;;;;;;18.42;6.00;;;;;;;5.28;77.14;103180.50;5036931;28;20049;-71
2021/04/24 00:11:54;;;;;;;12.48;5.05;;;;;;;5.24;77.24;103172.50;5039510;28;20199;-71
2021/04/24 00:14:21;;;;;;;11.85;5.25;;;;;;;5.18;77.56;103166.13;5038568;28;20183;-72
2021/04/24 00:16:48;;;;;;;13.77;5.32;;;;;;;5.17;78.30;103162.56;5035193;28;20057;-71
2021/04/24 00:19:15;;;;;;;13.77;5.20;;;;;;;5.17;78.40;103157.28;5039628;28;20421;-71
2021/04/24 00:21:42;;;;;;;14.45;5.60;;;;;;;5.18;78.19;103164.38;5037743;28;20053;-71
2021/04/24 00:24:10;;;;;;;11.38;4.93;;;;;;;5.12;78.32;103163.31;5042879;28;20083;-71
2021/04/24 00:26:37;;;;;;;10.82;4.35;;;;;;;5.11;78.22;103166.78;5040582;28;20068;-71
2021/04/24 00:29:05;;;;;;;13.13;5.50;;;;;;;5.10;77.64;103163.25;5043224;28;20168;-71
2021/04/24 00:31:32;;;;;;;14.15;5.65;;;;;;;5.08;78.61;103162.31;5039539;28;20061;-71
2021/04/24 00:33:59;;;;;;;13.70;5.10;;;;;;;5.06;79.26;103166.69;5042948;28;20067;-71
2021/04/24 00:36:26;;;;;;;13.23;5.18;;;;;;;5.01;79.05;103171.84;5040057;28;20110;-71
2021/04/24 00:38:54;;;;;;;13.80;5.70;;;;;;;4.96;79.52;103162.88;5041424;28;20053;-71
2021/04/24 00:41:21;;;;;;;13.05;5.00;;;;;;;4.92;79.28;103163.66;5039586;28;20496;-70
2021/04/24 00:43:48;;;;;;;13.52;5.63;;;;;;;4.88;79.88;103161.75;5043146;28;20060;-70
2021/04/24 00:46:17;;;;;;;13.43;4.90;;;;;;;4.91;79.61;103156.56;5041918;28;20057;-70
2021/04/24 00:48:44;;;;;;;14.27;6.22;;;;;;;4.86;79.75;103147.59;5034771;28;20052;-70
2021/04/24 00:51:12;;;;;;;12.32;5.30;;;;;;;4.84;80.09;103152.84;5042775;28;20530;-72
2021/04/24 00:53:39;;;;;;;14.35;5.20;;;;;;;4.82;80.11;103164.25;5039483;28;20060;-71
2021/04/24 00:56:07;;;;;;;15.38;5.43;;;;;;;4.78;80.26;103162.34;5056729;28;20057;-71
2021/04/24 00:58:34;;;;;;;15.43;6.28;;;;;;;4.74;80.63;103158.72;5040544;28;20139;-71
2021/04/24 01:01:01;;;;;;;15.00;6.10;;;;;;;4.71;80.85;103160.38;5039778;28;20136;-71
2021/04/24 01:03:29;;;;;;;14.00;5.93;;;;;;;4.71;81.01;103165.66;5040293;28;20411;-72
2021/04/24 01:05:56;;;;;;;13.45;5.40;;;;;;;4.64;80.86;103156.66;5041382;28;20061;-70
2021/04/24 01:08:23;;;;;;;12.70;5.85;;;;;;;4.65;81.02;103167.28;5039324;28;20409;-74
2021/04/24 01:10:50;;;;;;;15.30;6.68;;;;;;;4.62;81.16;103164.53;5041156;28;20086;-70
2021/04/24 01:13:18;;;;;;;13.63;5.35;;;;;;;4.61;80.65;103167.13;5042064;28;20149;-70
2021/04/24 01:15:46;;;;;;;15.32;6.13;;;;;;;4.60;81.55;103158.31;5039475;28;20769;-75
2021/04/24 01:18:13;;;;;;;11.60;5.28;;;;;;;4.57;81.83;103159.97;5040862;28;20445;-75
2021/04/24 01:20:41;;;;;;;16.05;6.40;;;;;;;4.55;81.65;103156.41;5040344;28;20061;-75
2021/04/24 01:23:10;;;;;;;13.93;6.28;;;;;;;4.52;82.03;103149.25;5038153;28;20068;-75
2021/04/24 01:25:39;;;;;;;29.23;7.05;;;;;;;4.51;82.50;103150.09;5042501;28;20083;-74
2021/04/24 01:28:07;;;;;;;21.02;7.00;;;;;;;4.51;82.20;103143.91;5040180;28;20064;-75
2021/04/24 01:30:36;;;;;;;15.63;6.50;;;;;;;4.46;82.41;103149.97;5039308;28;20069;-75
2021/04/24 01:33:05;;;;;;;20.58;7.93;;;;;;;4.44;82.45;103154.34;5040746;28;20316;-75
2021/04/24 01:35:33;;;;;;;17.52;6.75;;;;;;;4.43;81.74;103152.53;5040039;28;20061;-76
2021/04/24 01:38:01;;;;;;;21.48;8.77;;;;;;;4.42;82.02;103148.06;5040732;28;20064;-71
2021/04/24 01:40:29;;;;;;;16.40;8.35;;;;;;;4.40;81.65;103152.44;5039664;28;20155;-71
2021/04/24 01:42:56;;;;;;;16.48;7.38;;;;;;;4.38;82.08;103148.84;5043386;28;20444;-75
2021/04/24 01:45:24;;;;;;;18.00;9.27;;;;;;;4.36;82.56;103153.19;5035334;28;20057;-75
2021/04/24 01:47:52;;;;;;;16.35;7.63;;;;;;;4.31;81.90;103144.22;5043809;28;20318;-74
2021/04/24 01:50:23;;;;;;;15.00;6.97;;;;;;;4.29;82.04;103141.53;5037944;28;20467;-74
2021/04/24 01:52:52;;;;;;;20.73;8.05;;;;;;;4.27;81.91;103142.31;5041327;28;20061;-75
2021/04/24 01:55:21;;;;;;;17.63;8.15;;;;;;;4.23;82.82;103138.69;5038011;28;20059;-75
2021/04/24 01:57:51;;;;;;;18.10;7.45;;;;;;;4.21;82.55;103148.31;5044309;28;20130;-73
2021/04/24 02:00:23;;;;;;;16.13;7.20;;;;;;;4.20;82.21;103135.94;5036510;28;20468;-75
2021/04/24 02:02:50;;;;;;;16.65;6.90;;;;;;;4.19;82.00;103146.47;5055937;28;20529;-74
2021/04/24 02:05:18;;;;;;;20.05;7.50;;;;;;;4.19;82.22;103144.75;5039853;28;20072;-74
2021/04/24 02:07:56;;;;;;;18.50;7.15;;;;;;;4.16;81.82;103141.13;5040263;28;20061;-74
2021/04/24 02:10:25;;;;;;;18.98;6.85;;;;;;;4.13;82.39;103141.00;5040684;28;20556;-73
2021/04/24 02:12:55;;;;;;;18.30;7.80;;;;;;;4.14;82.40;103145.44;5040568;28;20055;-74
2021/04/24 02:15:23;;;;;;;20.50;7.65;;;;;;;4.10;82.31;103139.16;5039136;28;20166;-74
2021/04/24 02:17:49;;;;;;;21.55;7.95;;;;;;;4.06;82.28;103142.56;5038961;28;20177;-74
2021/04/24 02:20:18;;;;;;;21.83;8.10;;;;;;;4.06;82.74;103140.81;5039991;28;20061;-74
2021/04/24 02:22:45;;;;;;;20.52;8.60;;;;;;;4.06;82.51;103137.28;5038203;28;20057;-73
2021/04/24 02:25:14;;;;;;;19.65;8.10;;;;;;;4.03;82.49;103142.47;5038227;28;20061;-74
2021/04/24 02:27:41;;;;;;;18.50;6.82;;;;;;;4.02;82.78;103138.00;5041069;28;20049;-75
2021/04/24 02:30:11;;;;;;;20.70;8.05;;;;;;;4.00;82.46;103142.34;5036869;28;20065;-74
2021/04/24 02:32:38;;;;;;;18.77;6.75;;;;;;;3.98;82.68;103146.69;5034487;28;20071;-76
2021/04/24 02:35:07;;;;;;;17.63;6.75;;;;;;;3.93;82.73;103149.19;5040842;28;20057;-75
2021/04/24 02:37:34;;;;;;;24.08;7.47;;;;;;;3.92;82.75;103136.84;5036335;28;20087;-74
2021/04/24 02:40:05;;;;;;;17.75;7.78;;;;;;;3.92;83.09;103147.41;5039424;28;20056;-75
2021/04/24 02:42:32;;;;;;;19.63;7.57;;;;;;;3.89;82.93;103144.66;5037818;28;20060;-75
2021/04/24 02:45:05;;;;;;;20.55;8.18;;;;;;;3.87;83.10;103139.31;5037504;28;20060;-75
2021/04/24 02:47:33;;;;;;;21.55;7.95;;;;;;;3.84;82.86;103151.53;5035298;28;20055;-74
2021/04/24 02:50:00;;;;;;;19.60;7.72;;;;;;;3.82;83.56;103153.25;5039362;28;20320;-75
2021/04/24 02:52:27;;;;;;;20.23;7.72;;;;;;;3.80;83.38;103141.69;5033010;28;20289;-76
2021/04/24 02:54:54;;;;;;;20.38;7.72;;;;;;;3.79;83.22;103145.22;5037710;28;20067;-75
2021/04/24 02:57:22;;;;;;;19.20;7.72;;;;;;;3.77;83.32;103146.91;5035943;28;20144;-75
2021/04/24 02:59:49;;;;;;;18.90;7.63;;;;;;;3.74;83.51;103145.94;5038347;28;20144;-75
2021/04/24 03:02:16;;;;;;;20.05;8.10;;;;;;;3.68;83.34;103145.75;5036369;28;20110;-74
2021/04/24 03:04:44;;;;;;;19.13;9.25;;;;;;;3.67;83.49;103149.22;5035958;28;20053;-74
2021/04/24 03:07:12;;;;;;;19.42;7.95;;;;;;;3.65;83.56;103150.03;5041209;28;20155;-75
2021/04/24 03:09:39;;;;;;;21.73;7.75;;;;;;;3.64;83.90;103151.75;5035680;28;20332;-74
2021/04/24 03:12:07;;;;;;;24.00;8.85;;;;;;;3.61;83.74;103149.03;5040235;28;20056;-76
2021/04/24 03:14:34;;;;;;;25.10;8.75;;;;;;;3.57;83.61;103155.03;5047453;28;20115;-75
2021/04/24 03:17:02;;;;;;;24.60;9.13;;;;;;;3.57;84.61;103152.41;5038519;28;20068;-75
2021/04/24 03:19:29;;;;;;;18.58;7.25;;;;;;;3.52;83.71;103159.28;5039251;28;20963;-71
2021/04/24 03:21:57;;;;;;;21.60;9.02;;;;;;;3.51;84.42;103158.38;5038954;28;20060;-71
2021/04/24 03:24:24;;;;;;;22.27;8.95;;;;;;;3.50;84.92;103159.22;5035269;28;20067;-71
2021/04/24 03:26:51;;;;;;;21.98;8.70;;;;;;;3.48;84.49;103149.47;5037978;28;20061;-71
2021/04/24 03:29:18;;;;;;;26.88;8.88;;;;;;;3.49;84.64;103141.59;5038900;28;20085;-71
2021/04/24 03:31:44;;;;;;;22.10;8.38;;;;;;;3.46;84.39;103146.78;5036490;28;20158;-71
2021/04/24 03:34:12;;;;;;;23.80;8.40;;;;;;;3.42;84.12;103157.16;5038262;28;20147;-71
2021/04/24 03:36:39;;;;;;;21.95;8.10;;;;;;;3.40;84.32;103151.81;5037944;28;20084;-71
2021/04/24 03:39:07;;;;;;;24.40;9.35;;;;;;;3.40;85.07;103145.66;5038436;28;20099;-71
2021/04/24 03:41:34;;;;;;;21.52;8.18;;;;;;;3.35;84.52;103149.06;5037436;28;20063;-70
2021/04/24 03:44:00;;;;;;;23.85;8.48;;;;;;;3.37;84.87;103159.63;5041119;28;20060;-71
2021/04/24 03:46:27;;;;;;;23.98;8.60;;;;;;;3.37;85.06;103159.63;5037781;28;20060;-70
2021/04/24 03:48:55;;;;;;;29.48;10.07;;;;;;;3.34;85.23;103146.38;5039460;28;20167;-70
2021/04/24 03:51:22;;;;;;;26.60;9.43;;;;;;;3.31;85.16;103147.13;5039934;28;20064;-72
2021/04/24 03:53:49;;;;;;;21.92;8.68;;;;;;;3.26;85.45;103153.09;5037837;28;20057;-71
2021/04/24 03:56:18;;;;;;;22.00;9.07;;;;;;;3.28;85.58;103149.66;5038628;28;20063;-70
2021/04/24 03:58:45;;;;;;;20.45;9.00;;;;;;;3.27;84.97;103152.25;5042405;28;20076;-71
2021/04/24 04:01:12;;;;;;;22.73;9.13;;;;;;;3.26;85.51;103148.72;5044008;28;20057;-71
2021/04/24 04:03:39;;;;;;;21.75;8.50;;;;;;;3.25;85.55;103149.59;5044927;28;20401;-70
2021/04/24 04:06:06;;;;;;;23.05;9.35;;;;;;;3.30;85.94;103145.38;5046221;28;20060;-70
2021/04/24 04:08:33;;;;;;;28.00;9.20;;;;;;;3.28;85.63;103157.56;5046476;28;20082;-70
2021/04/24 04:11:00;;;;;;;22.10;8.48;;;;;;;3.26;85.75;103159.28;5043010;28;20130;-71
2021/04/24 04:13:28;;;;;;;21.90;8.25;;;;;;;3.23;84.74;103164.44;5045072;28;20072;-72
2021/04/24 04:15:55;;;;;;;27.88;10.38;;;;;;;3.25;86.07;103170.69;5058614;28;20448;-72
2021/04/24 04:18:22;;;;;;;23.77;8.95;;;;;;;3.22;85.54;103161.75;5041998;28;20062;-71
2021/04/24 04:20:50;;;;;;;22.85;9.00;;;;;;;3.22;85.98;103157.38;5044218;28;20061;-71
2021/04/24 04:23:21;;;;;;;26.60;9.77;;;;;;;3.18;85.87;103172.22;5043125;28;20531;-71
2021/04/24 04:25:50;;;;;;;26.58;9.20;;;;;;;3.20;86.00;103171.34;5046106;28;20067;-71
2021/04/24 04:28:18;;;;;;;28.15;10.10;;;;;;;3.23;85.92;103179.38;5042708;28;20079;-71
2021/04/24 04:30:45;;;;;;;23.42;9.00;;;;;;;3.20;85.91;103174.88;5045762;28;20057;-71
2021/04/24 04:33:13;;;;;;;31.02;9.57;;;;;;;3.24;86.26;103174.16;5041030;28;20083;-71
2021/04/24 04:35:41;;;;;;;25.73;10.07;;;;;;;3.25;86.14;103167.13;5045534;28;20060;-71
2021/04/24 04:38:08;;;;;;;31.52;10.52;;;;;;;3.26;86.05;103172.47;5043510;28;20388;-71
2021/04/24 04:40:35;;;;;;;20.63;8.07;;;;;;;3.26;86.19;103175.09;5047370;28;20699;-71
2021/04/24 04:43:03;;;;;;;20.00;9.27;;;;;;;3.27;86.05;103178.63;5042123;28;20065;-71
2021/04/24 04:45:31;;;;;;;27.50;10.48;;;;;;;3.27;86.12;103171.63;5046358;28;20227;-71
2021/04/24 04:47:59;;;;;;;30.92;9.65;;;;;;;3.32;85.90;103169.13;5045406;28;20065;-71
2021/04/24 04:50:31;;;;;;;26.90;9.80;;;;;;;3.33;85.99;103174.47;5043346;28;20087;-71
2021/04/24 04:52:58;;;;;;;28.75;9.27;;;;;;;3.34;85.47;103176.28;5038871;28;20272;-71
2021/04/24 04:55:26;;;;;;;25.30;9.13;;;;;;;3.37;86.06;103167.56;5046666;28;20056;-75
2021/04/24 04:57:53;;;;;;;27.17;9.73;;;;;;;3.38;85.36;103169.34;5045256;28;20060;-74
2021/04/24 05:00:21;;;;;;;23.85;10.05;;;;;;;3.43;85.65;103169.53;5042942;28;20053;-75
2021/04/24 05:02:49;;;;;;;22.77;9.45;;;;;;;3.47;86.04;103169.66;5043112;28;20241;-76
2021/04/24 05:05:18;;;;;;;21.38;8.88;;;;;;;3.54;86.18;103170.78;5042623;28;20076;-74
2021/04/24 05:07:47;;;;;;;32.85;11.23;;;;;;;3.61;86.08;103171.88;5043258;28;20155;-74
2021/04/24 05:10:23;;;;;;;24.23;9.55;;;;;;;3.68;85.92;103164.25;5055031;28;20056;-75
2021/04/24 05:12:50;;;;;;;24.65;9.32;;;;;;;3.74;85.50;103166.19;5036366;28;20111;-75
2021/04/24 05:15:17;;;;;;;27.85;9.73;;;;;;;3.81;85.07;103165.53;5038129;28;20049;-75
2021/04/24 05:17:45;;;;;;;24.98;9.10;;;;;;;3.92;85.35;103166.78;5043670;28;20728;-74
2021/04/24 05:20:14;;;;;;;26.30;9.73;;;;;;;3.99;84.60;103167.88;5040521;28;20111;-75
2021/04/24 05:22:42;;;;;;;21.73;10.00;;;;;;;4.07;84.72;103169.03;5040833;28;20069;-75
2021/04/24 05:25:11;;;;;;;24.40;8.88;;;;;;;4.16;84.22;103167.53;5037396;28;20075;-75
2021/04/24 05:27:39;;;;;;;21.40;8.88;;;;;;;4.29;83.69;103174.97;5041074;28;20057;-74
2021/04/24 05:30:06;;;;;;;23.45;9.27;;;;;;;4.33;83.38;103174.25;5038621;28;20057;-74
2021/04/24 05:32:34;;;;;;;20.77;8.50;;;;;;;4.42;83.29;103182.44;5042221;28;20072;-75
2021/04/24 05:35:01;;;;;;;25.33;8.90;;;;;;;4.53;82.85;103176.59;5040375;28;20073;-75
2021/04/24 05:37:28;;;;;;;24.45;9.70;;;;;;;4.66;82.67;103169.06;5041719;28;20072;-71
2021/04/24 05:39:56;;;;;;;22.80;10.40;;;;;;;4.82;81.76;103165.13;5039589;28;20055;-71
2021/04/24 05:42:28;;;;;;;23.92;9.38;;;;;;;4.90;81.48;103177.69;5042065;28;20061;-71
2021/04/24 05:44:55;;;;;;;23.85;8.68;;;;;;;5.03;80.79;103174.53;5040340;28;20089;-71
2021/04/24 05:47:22;;;;;;;19.58;8.38;;;;;;;5.01;80.89;103166.56;5039260;28;20164;-71
2021/04/24 05:49:49;;;;;;;19.90;8.20;;;;;;;4.93;81.04;103176.00;5056997;28;20499;-71
2021/04/24 05:52:16;;;;;;;23.95;8.63;;;;;;;5.03;81.37;103178.06;5038532;28;20065;-71
2021/04/24 05:54:44;;;;;;;19.45;9.18;;;;;;;5.17;80.81;103174.91;5040705;28;20057;-71
2021/04/24 05:57:12;;;;;;;25.88;9.57;;;;;;;5.41;79.91;103169.38;5036442;28;20149;-72
2021/04/24 05:59:39;;;;;;;22.70;8.80;;;;;;;5.90;78.58;103181.22;5038552;28;20436;-78
2021/04/24 06:02:05;;;;;;;23.17;9.70;;;;;;;6.37;76.90;103170.00;5040076;28;20879;-71
2021/04/24 06:04:33;;;;;;;25.80;9.40;;;;;;;6.68;75.38;103168.91;5040682;28;20126;-72
2021/04/24 06:07:01;;;;;;;19.30;7.97;;;;;;;6.65;75.22;103176.81;5042250;28;20053;-72
2021/04/24 06:09:28;;;;;;;22.20;8.10;;;;;;;6.62;75.82;103174.06;5040024;28;20514;-71
2021/04/24 06:11:56;;;;;;;20.27;9.68;;;;;;;6.46;75.37;103179.94;5038567;28;20064;-75
2021/04/24 06:14:23;;;;;;;23.90;10.15;;;;;;;6.21;75.54;103179.34;5057885;28;20060;-74
2021/04/24 06:16:50;;;;;;;20.67;8.40;;;;;;;6.21;75.97;103182.00;5039856;28;20060;-75
2021/04/24 06:19:18;;;;;;;23.17;8.07;;;;;;;6.19;75.59;103178.44;5042244;28;20091;-76
2021/04/24 06:21:45;;;;;;;32.05;7.75;;;;;;;6.43;75.83;103178.09;5041197;28;20068;-75
2021/04/24 06:24:11;;;;;;;18.58;7.93;;;;;;;6.59;75.07;103173.13;5037798;28;20163;-75
2021/04/24 06:26:38;;;;;;;17.55;7.65;;;;;;;6.68;74.62;103173.34;5041482;28;20096;-74
2021/04/24 06:29:05;;;;;;;18.70;7.78;;;;;;;6.79;73.32;103177.09;5039045;28;20096;-74
2021/04/24 06:31:37;;;;;;;20.83;8.57;;;;;;;6.86;73.17;103183.41;5040981;28;20204;-75
2021/04/24 06:34:04;;;;;;;18.85;7.35;;;;;;;6.88;72.52;103187.03;5037721;28;20068;-75
2021/04/24 06:36:31;;;;;;;18.85;7.47;;;;;;;6.85;73.30;103181.66;5038000;28;20077;-76
2021/04/24 06:38:59;;;;;;;16.67;7.45;;;;;;;7.07;72.58;103175.00;5037708;28;20055;-76
2021/04/24 06:41:26;;;;;;;17.77;7.50;;;;;;;7.33;70.70;103175.50;5038673;28;20475;-75
2021/04/24 06:43:53;;;;;;;19.75;8.20;;;;;;;7.55;70.21;103175.91;5038855;28;20065;-75
2021/04/24 06:46:19;;;;;;;17.20;7.82;;;;;;;7.29;70.87;103178.97;5037701;28;20084;-77
2021/04/24 06:48:47;;;;;;;17.42;7.22;;;;;;;7.29;70.68;103176.31;5038721;28;20053;-75
2021/04/24 06:51:14;;;;;;;20.35;8.73;;;;;;;7.10;70.49;103170.66;5040919;28;20060;-76
2021/04/24 06:53:41;;;;;;;19.55;7.30;;;;;;;7.17;70.73;103174.31;5036639;28;20150;-74
2021/04/24 06:56:08;;;;;;;17.35;8.15;;;;;;;7.27;71.44;103170.06;5040985;28;20076;-75
2021/04/24 06:58:35;;;;;;;16.27;6.63;;;;;;;7.70;69.87;103178.81;5037943;28;20065;-75
2021/04/24 07:01:02;;;;;;;16.55;6.85;;;;;;;7.87;68.12;103171.13;5038565;28;20061;-74
2021/04/24 07:03:29;;;;;;;19.35;7.07;;;;;;;8.22;67.62;103176.09;5042069;28;20144;-75
2021/04/24 07:05:57;;;;;;;15.98;7.15;;;;;;;8.63;66.24;103177.59;5039884;28;20052;-75
2021/04/24 07:08:24;;;;;;;13.55;6.80;;;;;;;8.79;64.94;103175.16;5038644;28;20507;-71
2021/04/24 07:10:51;;;;;;;18.42;7.00;;;;;;;8.65;64.67;103179.41;5036861;28;20282;-72
2021/04/24 07:13:18;;;;;;;18.48;7.40;;;;;;;8.95;64.42;103188.66;5041026;28;20060;-75
2021/04/24 07:15:45;;;;;;;20.77;6.88;;;;;;;9.31;62.69;103171.28;5036197;28;20082;-76
2021/04/24 07:18:12;;;;;;;18.23;7.22;;;;;;;9.66;61.81;103168.97;5038152;28;20139;-76
2021/04/24 07:20:39;;;;;;;14.05;6.43;;;;;;;9.62;60.36;103167.16;5053099;28;20060;-76
2021/04/24 07:23:08;;;;;;;18.73;7.22;;;;;;;9.61;59.70;103173.38;5041721;28;20053;-75
2021/04/24 07:25:36;;;;;;;14.40;5.78;;;;;;;9.60;58.62;103171.56;5039345;28;20126;-75
2021/04/24 07:28:03;;;;;;;16.70;6.70;;;;;;;9.41;59.96;103169.63;5040017;28;20060;-75
2021/04/24 07:30:30;;;;;;;19.27;6.40;;;;;;;9.38;60.38;103180.25;5037711;28;20080;-76
2021/04/24 07:32:57;;;;;;;15.43;5.85;;;;;;;9.04;60.55;103175.47;5037466;28;20089;-76
2021/04/24 07:35:24;;;;;;;14.88;6.50;;;;;;;9.47;60.02;103167.91;5039846;28;20060;-75
2021/04/24 07:37:51;;;;;;;12.98;6.03;;;;;;;9.71;59.95;103172.56;5037440;28;20068;-71
2021/04/24 07:40:19;;;;;;;14.38;6.60;;;;;;;9.57;58.41;103168.91;5039351;28;20098;-72
2021/04/24 07:42:46;;;;;;;11.73;5.18;;;;;;;9.48;56.90;103156.38;5033746;28;20676;-71
2021/04/24 07:45:15;;;;;;;12.07;5.32;;;;;;;9.69;57.06;103155.66;5036809;28;20057;-71
2021/04/24 07:47:42;;;;;;;15.20;6.18;;;;;;;10.43;55.11;103153.53;5037177;28;20049;-71
2021/04/24 07:50:11;;;;;;;10.27;4.78;;;;;;;10.27;54.69;103155.19;5034816;28;20147;-71
2021/04/24 07:52:40;;;;;;;11.05;4.82;;;;;;;10.40;53.61;103149.94;5034748;28;20061;-72
2021/04/24 07:55:10;;;;;;;9.00;4.75;;;;;;;9.94;54.77;103157.63;5035452;28;20572;-72
2021/04/24 07:57:38;;;;;;;9.73;4.03;;;;;;;9.97;52.88;103155.00;5038424;28;20158;-72
2021/04/24 08:00:07;;;;;;;9.93;4.93;;;;;;;9.71;52.85;103156.56;5036026;28;20066;-72
2021/04/24 08:02:35;;;;;;;11.95;4.35;;;;;;;9.68;51.58;103151.19;5036187;28;20115;-71
2021/04/24 08:05:03;;;;;;;12.73;5.25;;;;;;;9.66;51.66;103146.75;5038398;28;20114;-71
2021/04/24 08:07:48;;;;;;;10.30;4.70;;;;;;;9.76;51.94;103145.06;5031711;28;20096;-70
2021/04/24 08:10:15;;;;;;;10.77;4.78;;;;;;;10.10;52.12;103147.09;5038283;28;20053;-74
2021/04/24 08:12:43;;;;;;;9.85;4.32;;;;;;;10.21;51.05;103151.59;5039821;28;20160;-75
2021/04/24 08:15:11;;;;;;;8.57;4.30;;;;;;;10.44;49.37;103152.66;5053842;28;20065;-76
2021/04/24 08:17:38;;;;;;;7.78;4.03;;;;;;;10.37;49.48;103134.84;5037847;28;20048;-77
2021/04/24 08:20:07;;;;;;;11.02;4.70;;;;;;;9.93;50.60;103155.84;5039618;28;20068;-75
2021/04/24 08:22:35;;;;;;;17.73;5.35;;;;;;;10.52;50.07;103149.13;5037491;28;20049;-76
2021/04/24 08:25:02;;;;;;;10.88;4.93;;;;;;;10.76;49.92;103145.66;5036624;28;20460;-76
2021/04/24 08:27:30;;;;;;;12.35;4.60;;;;;;;10.50;50.24;103146.44;5041885;28;20048;-74
2021/04/24 08:30:00;;;;;;;11.45;5.70;;;;;;;10.64;50.34;103150.09;5036425;28;20049;-75
2021/04/24 08:32:27;;;;;;;12.70;4.63;;;;;;;10.66;50.73;103150.09;5040370;28;20061;-75
2021/04/24 08:34:54;;;;;;;12.40;4.35;;;;;;;10.64;49.92;103159.84;5037758;28;20201;-75
2021/04/24 08:37:22;;;;;;;8.10;4.03;;;;;;;10.87;49.62;103146.63;5054260;28;20100;-76
2021/04/24 08:39:48;;;;;;;11.20;4.80;;;;;;;10.62;49.03;103157.22;5038260;28;20073;-75
2021/04/24 08:42:16;;;;;;;10.00;4.15;;;;;;;10.84;49.14;103151.94;5053287;28;20069;-76
2021/04/24 08:44:44;;;;;;;10.85;4.75;;;;;;;10.86;49.24;103150.16;5045012;28;20057;-71
2021/04/24 08:47:12;;;;;;;10.73;4.88;;;;;;;10.86;49.42;103155.50;5042882;28;20052;-71
2021/04/24 08:49:41;;;;;;;10.15;4.22;;;;;;;11.05;49.19;103152.88;5040931;28;20247;-71
2021/04/24 08:52:08;;;;;;;9.10;4.78;;;;;;;11.00;50.42;103153.78;5041355;28;20054;-71
2021/04/24 08:54:35;;;;;;;10.40;5.10;;;;;;;10.70;50.89;103154.56;5038585;28;20057;-71
2021/04/24 08:57:02;;;;;;;9.68;4.85;;;;;;;11.24;50.72;103148.47;5056798;28;20535;-73
2021/04/24 08:59:29;;;;;;;12.65;4.93;;;;;;;11.02;50.57;103151.13;5040766;28;20100;-71
2021/04/24 09:01:56;;;;;;;8.82;4.38;;;;;;;11.17;50.25;103158.28;5038502;28;20093;-71
2021/04/24 09:04:24;;;;;;;10.63;5.07;;;;;;;11.58;49.58;103152.97;5040874;28;20056;-71
2021/04/24 09:06:51;;;;;;;9.13;4.05;;;;;;;11.56;49.20;103146.75;5040743;28;20057;-71
2021/04/24 09:09:26;;;;;;;10.35;5.07;;;;;;;11.53;48.55;103141.41;5038972;28;20058;-70
2021/04/24 09:11:56;;;;;;;10.25;4.15;;;;;;;12.24;47.72;103132.44;5039954;28;20060;-76
2021/04/24 09:14:26;;;;;;;8.82;5.05;;;;;;;12.20;46.93;103138.69;5042706;28;20057;-76
2021/04/24 09:16:54;;;;;;;12.57;4.60;;;;;;;12.05;47.53;103142.28;5039709;28;20091;-71
2021/04/24 09:19:33;;;;;;;8.77;4.47;;;;;;;12.18;48.42;103137.81;5043723;28;20075;-71
2021/04/24 09:22:16;;;;;;;12.75;4.70;;;;;;;12.06;48.58;103134.25;5039634;28;20067;-71
2021/04/24 09:24:45;;;;;;;12.18;4.97;;;;;;;11.83;49.49;103128.00;5041645;28;20061;-71
2021/04/24 09:27:12;;;;;;;12.55;6.03;;;;;;;12.14;49.00;103143.16;5036139;28;20471;-72
2021/04/24 09:30:16;;;;;;;13.35;4.93;;;;;;;12.15;48.80;103133.34;5037371;28;20148;-70
2021/04/24 09:32:43;;;;;;;10.88;4.82;;;;;;;12.10;47.88;103130.66;5055160;28;20064;-71
2021/04/24 09:35:19;;;;;;;9.32;4.32;;;;;;;12.01;48.01;103138.72;5042783;28;20147;-71
2021/04/24 09:37:54;;;;;;;10.35;5.05;;;;;;;12.26;46.96;103136.91;5037394;28;20075;-71
2021/04/24 09:40:22;;;;;;;9.85;4.70;;;;;;;13.12;46.31;103137.41;5041274;28;20060;-70
2021/04/24 09:42:48;;;;;;;11.13;4.65;;;;;;;13.17;45.49;103124.88;5038669;28;20168;-70
2021/04/24 09:45:27;;;;;;;10.30;4.95;;;;;;;12.48;46.50;103131.47;5042020;28;20163;-70
2021/04/24 09:47:55;;;;;;;8.77;4.47;;;;;;;12.95;46.41;103130.34;5035300;28;20843;-71
2021/04/24 09:50:30;;;;;;;10.57;4.70;;;;;;;13.75;45.10;103127.13;5039392;28;20060;-72
2021/04/24 09:53:15;;;;;;;7.03;3.85;;;;;;;12.82;42.60;103121.50;5040900;28;20239;-72
2021/04/24 09:55:43;;;;;;;9.80;4.28;;;;;;;12.75;44.29;103124.22;5039134;28;20384;-71
2021/04/24 09:58:25;;;;;;;7.63;3.85;;;;;;;13.30;43.15;103112.25;5036631;28;20056;-72
2021/04/24 10:00:53;;;;;;;7.78;3.20;;;;;;;12.62;42.15;103110.88;5038684;28;20063;-72
2021/04/24 10:03:38;;;;;;;9.60;4.07;;;;;;;12.74;43.16;103104.56;5038443;28;20106;-72
2021/04/24 10:06:29;;;;;;;5.72;3.10;;;;;;;13.01;41.95;103092.81;5038068;28;20069;-72
2021/04/24 10:09:27;;;;;;;6.18;3.10;;;;;;;13.25;40.76;103091.75;5054303;28;20176;-72
2021/04/24 10:12:08;;;;;;;7.13;2.63;;;;;;;13.22;39.02;103090.88;5036176;28;20053;-71
2021/04/24 10:14:36;;;;;;;7.07;3.00;;;;;;;12.80;39.70;103093.81;5038884;28;20060;-72
2021/04/24 10:17:06;;;;;;;7.47;2.58;;;;;;;13.20;39.16;103090.00;5037744;28;20325;-71
2021/04/24 10:19:35;;;;;;;6.43;3.10;;;;;;;13.57;39.17;103092.41;5041275;28;20056;-74
2021/04/24 10:22:05;;;;;;;5.45;2.53;;;;;;;13.72;39.26;103086.91;5039616;28;20073;-74
2021/04/24 10:24:33;;;;;;;5.53;2.72;;;;;;;14.02;38.97;103096.44;5036882;28;20069;-74
2021/04/24 10:27:00;;;;;;;8.82;3.60;;;;;;;13.81;38.92;103081.47;5035720;28;20507;-74
2021/04/24 10:29:28;;;;;;;8.90;3.47;;;;;;;12.99;39.68;103089.25;5036543;28;20368;-74
2021/04/24 10:31:55;;;;;;;8.23;3.30;;;;;;;13.70;39.31;103083.34;5040684;28;20057;-75
2021/04/24 10:34:23;;;;;;;6.43;2.78;;;;;;;13.50;38.75;103086.22;5035966;28;20072;-75
2021/04/24 10:36:51;;;;;;;5.65;2.83;;;;;;;14.00;38.37;103076.78;5037693;28;20111;-74
2021/04/24 10:39:22;;;;;;;7.03;2.92;;;;;;;14.14;37.68;103076.63;5037731;28;20065;-75
2021/04/24 10:42:00;;;;;;;5.53;3.05;;;;;;;14.04;37.96;103066.91;5041708;28;20443;-74
2021/04/24 10:44:59;;;;;;;5.53;2.85;;;;;;;14.20;35.88;103073.88;5035849;28;20061;-75
2021/04/24 10:47:52;;;;;;;4.10;2.17;;;;;;;14.33;34.97;103066.53;5038711;28;20057;-75
2021/04/24 10:50:21;;;;;;;5.07;2.30;;;;;;;14.92;35.27;103068.47;5037050;28;20056;-75
2021/04/24 10:52:51;;;;;;;5.53;2.20;;;;;;;14.75;34.65;103061.53;5040243;28;20312;-76
2021/04/24 10:55:24;;;;;;;6.43;2.67;;;;;;;14.23;35.63;103055.94;5033491;28;20159;-76
2021/04/24 10:57:53;;;;;;;6.88;2.50;;;;;;;14.41;32.69;103057.53;5041010;28;20060;-75
2021/04/24 11:00:23;;;;;;;3.63;2.30;;;;;;;14.79;32.64;103054.31;5035387;28;20279;-76
2021/04/24 11:02:52;;;;;;;5.80;2.95;;;;;;;15.16;32.48;103047.50;5037288;28;20099;-75
2021/04/24 11:05:26;;;;;;;5.22;2.33;;;;;;;15.11;32.79;103044.88;5034847;28;20521;-75
2021/04/24 11:08:25;;;;;;;4.40;2.30;;;;;;;15.34;31.95;103040.91;5037047;28;20064;-75
2021/04/24 11:11:02;;;;;;;5.30;2.55;;;;;;;15.37;31.76;103030.09;5050168;28;20361;-72
2021/04/24 11:13:33;;;;;;;4.97;2.40;;;;;;;15.31;29.98;103031.13;5034472;28;20072;-72
2021/04/24 11:16:02;;;;;;;5.28;2.53;;;;;;;14.50;32.01;103041.28;5036531;28;20057;-72
2021/04/24 11:18:32;;;;;;;7.00;2.72;;;;;;;14.60;32.74;103036.69;5038647;28;20057;-75
2021/04/24 11:21:02;;;;;;;5.35;2.75;;;;;;;14.59;32.37;103025.03;5037390;28;20143;-74
2021/04/24 11:23:45;;;;;;;4.38;2.20;;;;;;;14.83;33.26;103023.81;5038811;28;20106;-75
2021/04/24 11:26:39;;;;;;;6.75;2.83;;;;;;;14.62;30.48;103029.50;5039349;28;20494;-74
2021/04/24 11:29:10;;;;;;;5.95;2.45;;;;;;;14.82;30.63;103032.78;5037608;28;20136;-74
2021/04/24 11:32:02;;;;;;;6.30;2.70;;;;;;;15.13;32.05;103025.09;5038042;28;20172;-74
2021/04/24 11:34:35;;;;;;;3.85;2.20;;;;;;;14.64;30.09;103028.59;5040882;28;20068;-74